sensor_id;sensor_type;location;lat;lon;timestamp;pressure;altitude;pressure_sealevel;temperature;humidity
13800;BME280;6971;50.028;9.258;2023-02-15T00:01:36;100902.97;;;0.07;100.00
13800;BME280;6971;50.028;9.258;2023-02-15T00:06:37;100895.34;;;0.20;100.00
13800;BME280;6971;50.028;9.258;2023-02-15T00:11:38;100893.53;;;0.14;100.00
13800;BME280;6971;50.028;9.258;2023-02-15T00:16:43;100892.69;;;0.17;100.00
13800;BME280;6971;50.028;9.258;2023-02-15T00:21:45;100892.69;;;0.14;100.00
13800;BME280;6971;50.028;9.258;2023-02-15T00:26:46;100886.63;;;0.15;100.00
13800;BME280;6971;50.028;9.258;2023-02-15T00:31:47;100882.38;;;0.20;100.00
13800;BME280;6971;50.028;9.258;2023-02-15T00:36:48;100881.41;;;0.11;100.00
13800;BME280;6971;50.028;9.258;2023-02-15T00:41:48;100877.06;;;0.09;100.00
13800;BME280;6971;50.028;9.258;2023-02-15T00:46:49;100872.50;;;-0.08;100.00
13800;BME280;6971;50.028;9.258;2023-02-15T00:51:49;100864.03;;;0.06;100.00
13800;BME280;6971;50.028;9.258;2023-02-15T00:56:49;100860.47;;;-0.06;100.00
13800;BME280;6971;50.028;9.258;2023-02-15T01:01:50;100861.44;;;0.04;100.00
13800;BME280;6971;50.028;9.258;2023-02-15T01:06:50;100852.78;;;0.02;100.00
13800;BME280;6971;50.028;9.258;2023-02-15T01:11:50;100850.22;;;0.04;100.00
13800;BME280;6971;50.028;9.258;2023-02-15T01:16:51;100855.25;;;-0.07;100.00
13800;BME280;6971;50.028;9.258;2023-02-15T01:21:51;100853.56;;;-0.04;100.00
13800;BME280;6971;50.028;9.258;2023-02-15T01:26:51;100844.91;;;-0.06;100.00
13800;BME280;6971;50.028;9.258;2023-02-15T01:31:52;100840.59;;;-0.04;100.00
13800;BME280;6971;50.028;9.258;2023-02-15T01:36:52;100840.63;;;-0.02;100.00
13800;BME280;6971;50.028;9.258;2023-02-15T01:41:52;100828.41;;;-0.12;100.00
13800;BME280;6971;50.028;9.258;2023-02-15T01:46:53;100829.34;;;-0.06;100.00
13800;BME280;6971;50.028;9.258;2023-02-15T01:51:54;100817.94;;;-0.22;100.00
13800;BME280;6971;50.028;9.258;2023-02-15T01:56:58;100816.16;;;-0.23;100.00
13800;BME280;6971;50.028;9.258;2023-02-15T02:02:01;100819.66;;;-0.21;100.00
13800;BME280;6971;50.028;9.258;2023-02-15T02:07:04;100802.16;;;-0.39;100.00
13800;BME280;6971;50.028;9.258;2023-02-15T02:12:07;100802.22;;;-0.34;100.00
13800;BME280;6971;50.028;9.258;2023-02-15T02:27:49;100782.63;;;-0.77;100.00
13800;BME280;6971;50.028;9.258;2023-02-15T02:33:24;100767.88;;;-0.86;100.00
13800;BME280;6971;50.028;9.258;2023-02-15T02:48:48;100773.69;;;-1.55;100.00
13800;BME280;6971;50.028;9.258;2023-02-15T02:53:55;100776.28;;;-1.52;100.00
13800;BME280;6971;50.028;9.258;2023-02-15T03:04:13;100778.00;;;-1.54;100.00
13800;BME280;6971;50.028;9.258;2023-02-15T03:09:25;100764.00;;;-1.65;100.00
13800;BME280;6971;50.028;9.258;2023-02-15T03:14:35;100762.16;;;-1.73;100.00
13800;BME280;6971;50.028;9.258;2023-02-15T03:19:37;100760.56;;;-1.66;100.00
13800;BME280;6971;50.028;9.258;2023-02-15T03:24:55;100768.34;;;-1.63;100.00
13800;BME280;6971;50.028;9.258;2023-02-15T03:29:58;100769.28;;;-1.58;100.00
13800;BME280;6971;50.028;9.258;2023-02-15T03:34:59;100771.03;;;-1.58;100.00
13800;BME280;6971;50.028;9.258;2023-02-15T03:40:05;100767.66;;;-1.54;100.00
13800;BME280;6971;50.028;9.258;2023-02-15T03:45:29;100766.97;;;-1.42;100.00
13800;BME280;6971;50.028;9.258;2023-02-15T03:50:32;100767.97;;;-1.35;100.00
13800;BME280;6971;50.028;9.258;2023-02-15T03:55:54;100765.81;;;-1.09;100.00
13800;BME280;6971;50.028;9.258;2023-02-15T04:00:58;100755.81;;;-0.82;100.00
13800;BME280;6971;50.028;9.258;2023-02-15T04:06:18;100759.31;;;-0.79;100.00
13800;BME280;6971;50.028;9.258;2023-02-15T04:11:18;100758.47;;;-0.79;100.00
13800;BME280;6971;50.028;9.258;2023-02-15T04:16:18;100756.88;;;-0.68;100.00
13800;BME280;6971;50.028;9.258;2023-02-15T04:21:20;100756.13;;;-0.60;100.00
13800;BME280;6971;50.028;9.258;2023-02-15T04:26:40;100754.44;;;-0.57;100.00
13800;BME280;6971;50.028;9.258;2023-02-15T04:31:41;100754.31;;;-0.66;100.00
13800;BME280;6971;50.028;9.258;2023-02-15T04:36:41;100749.31;;;-0.52;100.00
13800;BME280;6971;50.028;9.258;2023-02-15T04:41:42;100753.53;;;-0.60;100.00
13800;BME280;6971;50.028;9.258;2023-02-15T04:46:43;100752.75;;;-0.55;100.00
13800;BME280;6971;50.028;9.258;2023-02-15T04:51:43;100735.50;;;-0.53;100.00
13800;BME280;6971;50.028;9.258;2023-02-15T04:56:43;100741.63;;;-0.46;100.00
13800;BME280;6971;50.028;9.258;2023-02-15T05:01:44;100743.34;;;-0.45;100.00
13800;BME280;6971;50.028;9.258;2023-02-15T05:06:44;100739.84;;;-0.50;100.00
13800;BME280;6971;50.028;9.258;2023-02-15T05:11:45;100750.31;;;-0.41;100.00
13800;BME280;6971;50.028;9.258;2023-02-15T05:16:45;100742.47;;;-0.47;100.00
13800;BME280;6971;50.028;9.258;2023-02-15T05:21:45;100744.16;;;-0.49;100.00
13800;BME280;6971;50.028;9.258;2023-02-15T05:26:48;100756.13;;;-0.60;100.00
13800;BME280;6971;50.028;9.258;2023-02-15T05:32:07;100748.47;;;-0.51;100.00
13800;BME280;6971;50.028;9.258;2023-02-15T05:37:08;100751.75;;;-0.64;100.00
13800;BME280;6971;50.028;9.258;2023-02-15T05:42:08;100740.63;;;-0.57;100.00
13800;BME280;6971;50.028;9.258;2023-02-15T05:47:08;100743.25;;;-0.54;100.00
13800;BME280;6971;50.028;9.258;2023-02-15T05:52:09;100733.47;;;-0.75;100.00
13800;BME280;6971;50.028;9.258;2023-02-15T05:57:09;100731.75;;;-0.73;100.00
13800;BME280;6971;50.028;9.258;2023-02-15T06:02:09;100741.38;;;-0.64;100.00
13800;BME280;6971;50.028;9.258;2023-02-15T06:07:10;100731.22;;;-0.50;100.00
13800;BME280;6971;50.028;9.258;2023-02-15T06:12:10;100728.53;;;-0.57;100.00
13800;BME280;6971;50.028;9.258;2023-02-15T06:17:10;100729.16;;;-0.73;100.00
13800;BME280;6971;50.028;9.258;2023-02-15T06:22:11;100737.78;;;-0.76;100.00
13800;BME280;6971;50.028;9.258;2023-02-15T06:27:13;100737.00;;;-0.69;100.00
13800;BME280;6971;50.028;9.258;2023-02-15T06:32:14;100739.69;;;-0.64;100.00
13800;BME280;6971;50.028;9.258;2023-02-15T06:37:14;100744.84;;;-0.66;100.00
13800;BME280;6971;50.028;9.258;2023-02-15T06:42:15;100755.16;;;-0.67;100.00
13800;BME280;6971;50.028;9.258;2023-02-15T06:47:15;100770.81;;;-0.59;100.00
13800;BME280;6971;50.028;9.258;2023-02-15T06:52:15;100773.28;;;-0.67;100.00
13800;BME280;6971;50.028;9.258;2023-02-15T06:57:16;100781.16;;;-0.59;100.00
13800;BME280;6971;50.028;9.258;2023-02-15T07:02:16;100772.53;;;-0.58;100.00
13800;BME280;6971;50.028;9.258;2023-02-15T07:07:16;100780.38;;;-0.54;100.00
13800;BME280;6971;50.028;9.258;2023-02-15T07:12:17;100777.97;;;-0.40;100.00
13800;BME280;6971;50.028;9.258;2023-02-15T07:17:36;100787.50;;;-0.37;100.00
13800;BME280;6971;50.028;9.258;2023-02-15T07:22:37;100784.09;;;-0.34;100.00
13800;BME280;6971;50.028;9.258;2023-02-15T07:27:38;100787.41;;;-0.46;100.00
13800;BME280;6971;50.028;9.258;2023-02-15T07:32:38;100788.38;;;-0.36;100.00
13800;BME280;6971;50.028;9.258;2023-02-15T07:37:58;100769.97;;;-0.57;100.00
13800;BME280;6971;50.028;9.258;2023-02-15T07:42:58;100767.56;;;-0.43;100.00
13800;BME280;6971;50.028;9.258;2023-02-15T07:48:02;100772.38;;;-0.71;100.00
13800;BME280;6971;50.028;9.258;2023-02-15T07:53:03;100771.81;;;-0.48;100.00
13800;BME280;6971;50.028;9.258;2023-02-15T07:58:04;100775.38;;;-0.40;100.00
13800;BME280;6971;50.028;9.258;2023-02-15T08:03:04;100779.78;;;-0.32;100.00
13800;BME280;6971;50.028;9.258;2023-02-15T08:08:14;100774.41;;;-0.48;100.00
13800;BME280;6971;50.028;9.258;2023-02-15T08:13:29;100777.06;;;-0.42;100.00
13800;BME280;6971;50.028;9.258;2023-02-15T08:18:29;100777.28;;;-0.24;100.00
13800;BME280;6971;50.028;9.258;2023-02-15T08:23:30;100776.31;;;-0.31;100.00
13800;BME280;6971;50.028;9.258;2023-02-15T08:28:30;100769.72;;;-0.07;100.00
13800;BME280;6971;50.028;9.258;2023-02-15T08:33:31;100769.03;;;0.11;100.00
13800;BME280;6971;50.028;9.258;2023-02-15T08:38:31;100776.97;;;0.25;100.00
13800;BME280;6971;50.028;9.258;2023-02-15T08:43:32;100772.78;;;0.39;100.00
13800;BME280;6971;50.028;9.258;2023-02-15T08:48:33;100761.47;;;0.33;100.00
13800;BME280;6971;50.028;9.258;2023-02-15T08:53:33;100759.72;;;0.27;100.00
13800;BME280;6971;50.028;9.258;2023-02-15T08:58:34;100747.78;;;0.45;100.00
13800;BME280;6971;50.028;9.258;2023-02-15T09:03:34;100732.28;;;0.57;100.00
13800;BME280;6971;50.028;9.258;2023-02-15T09:08:35;100728.09;;;0.75;100.00
13800;BME280;6971;50.028;9.258;2023-02-15T09:13:36;100721.00;;;0.47;100.00
13800;BME280;6971;50.028;9.258;2023-02-15T09:18:38;100713.41;;;0.74;100.00
13800;BME280;6971;50.028;9.258;2023-02-15T09:23:40;100704.78;;;0.84;100.00
13800;BME280;6971;50.028;9.258;2023-02-15T09:28:41;100707.28;;;0.62;100.00
13800;BME280;6971;50.028;9.258;2023-02-15T09:33:42;100703.91;;;0.79;100.00
13800;BME280;6971;50.028;9.258;2023-02-15T09:38:44;100713.41;;;0.77;100.00
13800;BME280;6971;50.028;9.258;2023-02-15T09:44:11;100710.28;;;1.34;100.00
13800;BME280;6971;50.028;9.258;2023-02-15T10:21:54;100696.66;;;2.02;100.00
13800;BME280;6971;50.028;9.258;2023-02-15T10:27:09;100698.41;;;2.14;100.00
13800;BME280;6971;50.028;9.258;2023-02-15T10:32:26;100699.25;;;2.21;100.00
13800;BME280;6971;50.028;9.258;2023-02-15T10:53:45;100686.25;;;2.51;100.00
13800;BME280;6971;50.028;9.258;2023-02-15T11:04:39;100702.72;;;2.45;100.00
13800;BME280;6971;50.028;9.258;2023-02-15T11:09:44;100704.44;;;2.90;100.00
13800;BME280;6971;50.028;9.258;2023-02-15T11:20:37;100693.97;;;3.08;100.00
13800;BME280;6971;50.028;9.258;2023-02-15T11:25:38;100689.69;;;2.90;100.00
13800;BME280;6971;50.028;9.258;2023-02-15T11:30:48;100697.41;;;3.21;100.00
13800;BME280;6971;50.028;9.258;2023-02-15T11:36:05;100683.59;;;2.97;100.00
13800;BME280;6971;50.028;9.258;2023-02-15T11:41:14;100678.94;;;3.71;100.00
13800;BME280;6971;50.028;9.258;2023-02-15T11:46:17;100676.38;;;3.67;98.36
13800;BME280;6971;50.028;9.258;2023-02-15T11:51:20;100678.28;;;3.27;99.42
13800;BME280;6971;50.028;9.258;2023-02-15T11:56:23;100665.91;;;3.73;100.00
13800;BME280;6971;50.028;9.258;2023-02-15T12:06:35;100666.66;;;3.90;99.27
13800;BME280;6971;50.028;9.258;2023-02-15T12:11:40;100653.56;;;4.97;93.06
13800;BME280;6971;50.028;9.258;2023-02-15T12:16:49;100646.81;;;4.76;90.08
13800;BME280;6971;50.028;9.258;2023-02-15T12:21:52;100654.66;;;5.51;87.84
13800;BME280;6971;50.028;9.258;2023-02-15T12:27:05;100639.09;;;6.05;84.83
13800;BME280;6971;50.028;9.258;2023-02-15T12:32:11;100641.19;;;5.78;84.82
13800;BME280;6971;50.028;9.258;2023-02-15T12:37:19;100622.41;;;7.08;79.81
13800;BME280;6971;50.028;9.258;2023-02-15T12:42:21;100618.69;;;7.60;77.11
13800;BME280;6971;50.028;9.258;2023-02-15T12:47:22;100610.09;;;6.68;80.52
13800;BME280;6971;50.028;9.258;2023-02-15T12:52:25;100607.69;;;7.43;76.23
13800;BME280;6971;50.028;9.258;2023-02-15T12:57:30;100605.47;;;7.25;78.18
13800;BME280;6971;50.028;9.258;2023-02-15T13:07:45;100587.91;;;7.68;75.57
13800;BME280;6971;50.028;9.258;2023-02-15T13:12:46;100581.22;;;7.13;75.92
13800;BME280;6971;50.028;9.258;2023-02-15T13:17:48;100577.91;;;7.05;77.17
13800;BME280;6971;50.028;9.258;2023-02-15T13:22:50;100569.38;;;7.36;76.46
13800;BME280;6971;50.028;9.258;2023-02-15T13:27:54;100560.03;;;7.23;75.88
13800;BME280;6971;50.028;9.258;2023-02-15T13:33:00;100557.28;;;6.44;78.75
13800;BME280;6971;50.028;9.258;2023-02-15T13:38:11;100549.06;;;6.62;79.86
13800;BME280;6971;50.028;9.258;2023-02-15T13:43:27;100535.97;;;6.62;79.62
13800;BME280;6971;50.028;9.258;2023-02-15T13:48:42;100541.97;;;6.22;81.61
13800;BME280;6971;50.028;9.258;2023-02-15T13:53:57;100530.78;;;6.13;82.22
13800;BME280;6971;50.028;9.258;2023-02-15T13:59:32;100524.81;;;6.05;82.09
13800;BME280;6971;50.028;9.258;2023-02-15T14:16:05;100522.03;;;6.13;82.68
13800;BME280;6971;50.028;9.258;2023-02-15T14:21:30;100524.66;;;6.13;81.59
13800;BME280;6971;50.028;9.258;2023-02-15T14:32:20;100510.69;;;5.60;84.09
13800;BME280;6971;50.028;9.258;2023-02-15T14:42:44;100510.38;;;5.79;83.81
13800;BME280;6971;50.028;9.258;2023-02-15T14:58:17;100497.06;;;5.40;84.62
13800;BME280;6971;50.028;9.258;2023-02-15T15:03:23;100488.31;;;5.41;85.30
13800;BME280;6971;50.028;9.258;2023-02-15T15:08:37;100483.69;;;5.00;86.58
13800;BME280;6971;50.028;9.258;2023-02-15T15:13:54;100492.78;;;4.73;88.20
13800;BME280;6971;50.028;9.258;2023-02-15T15:18:55;100492.03;;;4.60;89.28
13800;BME280;6971;50.028;9.258;2023-02-15T15:23:55;100501.91;;;4.34;90.30
13800;BME280;6971;50.028;9.258;2023-02-15T15:28:58;100495.94;;;4.21;91.50
13800;BME280;6971;50.028;9.258;2023-02-15T15:34:18;100497.81;;;4.10;91.92
13800;BME280;6971;50.028;9.258;2023-02-15T15:39:32;100491.91;;;3.89;93.54
13800;BME280;6971;50.028;9.258;2023-02-15T15:50:14;100497.38;;;3.61;95.43
13800;BME280;6971;50.028;9.258;2023-02-15T15:55:18;100494.19;;;3.23;96.90
13800;BME280;6971;50.028;9.258;2023-02-15T16:00:30;100489.03;;;3.13;99.28
13800;BME280;6971;50.028;9.258;2023-02-15T16:05:39;100496.03;;;3.02;100.00
13800;BME280;6971;50.028;9.258;2023-02-15T16:10:40;100498.69;;;2.91;100.00
13800;BME280;6971;50.028;9.258;2023-02-15T16:15:47;100499.66;;;2.73;100.00
13800;BME280;6971;50.028;9.258;2023-02-15T16:20:57;100497.16;;;2.43;100.00
13800;BME280;6971;50.028;9.258;2023-02-15T16:31:25;100511.09;;;2.20;100.00
13800;BME280;6971;50.028;9.258;2023-02-15T16:36:27;100505.06;;;1.97;100.00
13800;BME280;6971;50.028;9.258;2023-02-15T16:41:29;100507.69;;;1.75;100.00
13800;BME280;6971;50.028;9.258;2023-02-15T16:46:33;100511.16;;;1.52;100.00
13800;BME280;6971;50.028;9.258;2023-02-15T16:51:41;100507.66;;;1.42;100.00
13800;BME280;6971;50.028;9.258;2023-02-15T16:56:44;100515.47;;;1.36;100.00
13800;BME280;6971;50.028;9.258;2023-02-15T17:01:46;100520.59;;;1.03;100.00
13800;BME280;6971;50.028;9.258;2023-02-15T17:07:13;100524.03;;;1.03;100.00
13800;BME280;6971;50.028;9.258;2023-02-15T17:12:47;100517.03;;;0.77;100.00
13800;BME280;6971;50.028;9.258;2023-02-15T17:17:58;100526.53;;;0.68;100.00
13800;BME280;6971;50.028;9.258;2023-02-15T17:23:00;100523.03;;;0.65;100.00
13800;BME280;6971;50.028;9.258;2023-02-15T17:28:01;100530.72;;;0.44;100.00
13800;BME280;6971;50.028;9.258;2023-02-15T17:33:03;100528.84;;;0.21;100.00
13800;BME280;6971;50.028;9.258;2023-02-15T17:38:20;100536.56;;;0.11;100.00
13800;BME280;6971;50.028;9.258;2023-02-15T17:43:21;100539.06;;;-0.06;100.00
13800;BME280;6971;50.028;9.258;2023-02-15T17:48:26;100534.72;;;-0.05;100.00
13800;BME280;6971;50.028;9.258;2023-02-15T17:53:31;100540.66;;;-0.19;100.00
13800;BME280;6971;50.028;9.258;2023-02-15T17:58:31;100542.25;;;-0.36;100.00
13800;BME280;6971;50.028;9.258;2023-02-15T18:03:41;100541.31;;;-0.45;100.00
13800;BME280;6971;50.028;9.258;2023-02-15T18:09:01;100544.75;;;-0.46;100.00
13800;BME280;6971;50.028;9.258;2023-02-15T18:14:20;100533.44;;;-0.54;100.00
13800;BME280;6971;50.028;9.258;2023-02-15T18:19:25;100518.81;;;-0.52;100.00
13800;BME280;6971;50.028;9.258;2023-02-15T18:24:26;100532.50;;;-0.62;100.00
13800;BME280;6971;50.028;9.258;2023-02-15T18:29:26;100524.66;;;-0.72;100.00
13800;BME280;6971;50.028;9.258;2023-02-15T18:39:35;100528.69;;;-0.99;100.00
13800;BME280;6971;50.028;9.258;2023-02-15T18:44:36;100533.00;;;-1.01;100.00
13800;BME280;6971;50.028;9.258;2023-02-15T18:49:37;100535.44;;;-1.12;100.00
13800;BME280;6971;50.028;9.258;2023-02-15T18:54:37;100529.41;;;-1.12;100.00
13800;BME280;6971;50.028;9.258;2023-02-15T18:59:37;100526.75;;;-1.15;100.00
13800;BME280;6971;50.028;9.258;2023-02-15T19:04:38;100525.06;;;-1.15;100.00
13800;BME280;6971;50.028;9.258;2023-02-15T19:09:38;100524.06;;;-1.28;100.00
13800;BME280;6971;50.028;9.258;2023-02-15T19:14:40;100514.50;;;-1.32;100.00
13800;BME280;6971;50.028;9.258;2023-02-15T19:19:40;100519.56;;;-1.40;100.00
13800;BME280;6971;50.028;9.258;2023-02-15T19:24:42;100512.53;;;-1.52;100.00
13800;BME280;6971;50.028;9.258;2023-02-15T19:29:43;100503.97;;;-1.48;100.00
13800;BME280;6971;50.028;9.258;2023-02-15T19:34:44;100494.41;;;-1.53;100.00
13800;BME280;6971;50.028;9.258;2023-02-15T19:39:44;100496.13;;;-1.55;100.00
13800;BME280;6971;50.028;9.258;2023-02-15T19:44:45;100493.44;;;-1.63;100.00
13800;BME280;6971;50.028;9.258;2023-02-15T19:49:45;100489.00;;;-1.72;100.00
13800;BME280;6971;50.028;9.258;2023-02-15T19:54:47;100487.03;;;-1.92;100.00
13800;BME280;6971;50.028;9.258;2023-02-15T19:59:48;100490.31;;;-2.04;100.00
13800;BME280;6971;50.028;9.258;2023-02-15T20:04:48;100493.78;;;-2.00;100.00
13800;BME280;6971;50.028;9.258;2023-02-15T20:09:49;100504.81;;;-2.12;100.00
13800;BME280;6971;50.028;9.258;2023-02-15T20:14:50;100504.81;;;-2.12;100.00
13800;BME280;6971;50.028;9.258;2023-02-15T20:19:50;100509.03;;;-2.17;100.00
13800;BME280;6971;50.028;9.258;2023-02-15T20:24:51;100505.63;;;-2.13;100.00
13800;BME280;6971;50.028;9.258;2023-02-15T20:29:56;100513.34;;;-2.16;100.00
13800;BME280;6971;50.028;9.258;2023-02-15T20:34:57;100515.84;;;-2.21;100.00
13800;BME280;6971;50.028;9.258;2023-02-15T20:39:57;100514.81;;;-2.31;100.00
13800;BME280;6971;50.028;9.258;2023-02-15T20:44:57;100519.03;;;-2.39;100.00
13800;BME280;6971;50.028;9.258;2023-02-15T20:49:58;100513.75;;;-2.44;100.00
13800;BME280;6971;50.028;9.258;2023-02-15T20:54:58;100515.44;;;-2.47;100.00
13800;BME280;6971;50.028;9.258;2023-02-15T20:59:58;100523.94;;;-2.53;100.00
13800;BME280;6971;50.028;9.258;2023-02-15T21:04:59;100521.22;;;-2.61;100.00
13800;BME280;6971;50.028;9.258;2023-02-15T21:10:00;100520.31;;;-2.63;100.00
13800;BME280;6971;50.028;9.258;2023-02-15T21:15:00;100517.72;;;-2.66;100.00
13800;BME280;6971;50.028;9.258;2023-02-15T21:20:01;100519.31;;;-2.71;100.00
13800;BME280;6971;50.028;9.258;2023-02-15T21:25:01;100523.59;;;-2.73;100.00
13800;BME280;6971;50.028;9.258;2023-02-15T21:30:02;100527.81;;;-2.79;100.00
13800;BME280;6971;50.028;9.258;2023-02-15T21:35:05;100522.34;;;-2.94;100.00
13800;BME280;6971;50.028;9.258;2023-02-15T21:40:31;100512.16;;;-2.88;100.00
13800;BME280;6971;50.028;9.258;2023-02-15T21:45:32;100521.69;;;-2.84;100.00
13800;BME280;6971;50.028;9.258;2023-02-15T21:50:51;100516.34;;;-2.95;100.00
13800;BME280;6971;50.028;9.258;2023-02-15T21:56:13;100516.22;;;-2.99;100.00
13800;BME280;6971;50.028;9.258;2023-02-15T22:01:24;100516.91;;;-3.10;100.00
13800;BME280;6971;50.028;9.258;2023-02-15T22:06:25;100516.13;;;-3.04;100.00
13800;BME280;6971;50.028;9.258;2023-02-15T22:11:27;100521.28;;;-3.06;100.00
13800;BME280;6971;50.028;9.258;2023-02-15T22:16:29;100520.28;;;-3.11;100.00
13800;BME280;6971;50.028;9.258;2023-02-15T22:21:29;100522.81;;;-3.16;100.00
13800;BME280;6971;50.028;9.258;2023-02-15T22:26:30;100526.31;;;-3.12;100.00
13800;BME280;6971;50.028;9.258;2023-02-15T22:31:30;100525.25;;;-3.23;100.00
13800;BME280;6971;50.028;9.258;2023-02-15T22:36:31;100512.94;;;-3.37;100.00
13800;BME280;6971;50.028;9.258;2023-02-15T22:41:32;100510.06;;;-3.51;100.00
13800;BME280;6971;50.028;9.258;2023-02-15T22:46:32;100518.88;;;-3.39;100.00
13800;BME280;6971;50.028;9.258;2023-02-15T22:51:33;100517.09;;;-3.42;100.00
13800;BME280;6971;50.028;9.258;2023-02-15T22:56:39;100512.00;;;-3.39;100.00
13800;BME280;6971;50.028;9.258;2023-02-15T23:01:41;100510.94;;;-3.49;100.00
13800;BME280;6971;50.028;9.258;2023-02-15T23:06:41;100514.91;;;-3.65;100.00
13800;BME280;6971;50.028;9.258;2023-02-15T23:11:42;100507.44;;;-3.52;100.00
13800;BME280;6971;50.028;9.258;2023-02-15T23:16:43;100506.56;;;-3.55;100.00
13800;BME280;6971;50.028;9.258;2023-02-15T23:21:43;100494.44;;;-3.59;100.00
13800;BME280;6971;50.028;9.258;2023-02-15T23:26:45;100498.78;;;-3.56;100.00
13800;BME280;6971;50.028;9.258;2023-02-15T23:31:48;100496.91;;;-3.63;100.00
13800;BME280;6971;50.028;9.258;2023-02-15T23:36:49;100498.44;;;-3.72;100.00
13800;BME280;6971;50.028;9.258;2023-02-15T23:41:50;100500.16;;;-3.72;100.00
13800;BME280;6971;50.028;9.258;2023-02-15T23:46:50;100497.38;;;-3.82;100.00
13800;BME280;6971;50.028;9.258;2023-02-15T23:51:53;100496.66;;;-3.74;100.00
13800;BME280;6971;50.028;9.258;2023-02-15T23:56:58;100498.09;;;-3.89;100.00
